sensor_id;sensor_type;location;lat;lon;timestamp;P1;durP1;ratioP1;P2;durP2;ratioP2
2636;SDS011;1328;52.486;9.860;2022-07-15T00:01:36;22.50;;;20.33;;
2636;SDS011;1328;52.486;9.860;2022-07-15T00:04:02;22.63;;;20.73;;
2636;SDS011;1328;52.486;9.860;2022-07-15T00:06:28;20.53;;;18.40;;
2636;SDS011;1328;52.486;9.860;2022-07-15T00:08:54;20.77;;;18.90;;
2636;SDS011;1328;52.486;9.860;2022-07-15T00:11:20;19.33;;;17.60;;
2636;SDS011;1328;52.486;9.860;2022-07-15T00:13:46;18.90;;;17.30;;
2636;SDS011;1328;52.486;9.860;2022-07-15T00:16:12;19.00;;;17.40;;
2636;SDS011;1328;52.486;9.860;2022-07-15T00:18:39;20.10;;;18.13;;
2636;SDS011;1328;52.486;9.860;2022-07-15T00:21:05;18.43;;;16.70;;
2636;SDS011;1328;52.486;9.860;2022-07-15T00:23:31;17.57;;;16.00;;
2636;SDS011;1328;52.486;9.860;2022-07-15T00:25:58;17.93;;;16.03;;
2636;SDS011;1328;52.486;9.860;2022-07-15T00:28:24;16.50;;;15.00;;
2636;SDS011;1328;52.486;9.860;2022-07-15T00:30:50;16.17;;;14.70;;
2636;SDS011;1328;52.486;9.860;2022-07-15T00:33:16;16.60;;;14.87;;
2636;SDS011;1328;52.486;9.860;2022-07-15T00:35:42;17.33;;;15.73;;
2636;SDS011;1328;52.486;9.860;2022-07-15T00:38:08;14.60;;;13.40;;
2636;SDS011;1328;52.486;9.860;2022-07-15T00:40:42;15.30;;;13.70;;
2636;SDS011;1328;52.486;9.860;2022-07-15T00:43:08;14.90;;;13.60;;
2636;SDS011;1328;52.486;9.860;2022-07-15T00:45:35;14.90;;;13.60;;
2636;SDS011;1328;52.486;9.860;2022-07-15T00:48:01;15.50;;;14.00;;
2636;SDS011;1328;52.486;9.860;2022-07-15T00:50:29;16.83;;;14.43;;
2636;SDS011;1328;52.486;9.860;2022-07-15T00:52:56;16.50;;;15.03;;
2636;SDS011;1328;52.486;9.860;2022-07-15T00:55:24;15.63;;;14.13;;
2636;SDS011;1328;52.486;9.860;2022-07-15T00:57:51;17.07;;;15.40;;
2636;SDS011;1328;52.486;9.860;2022-07-15T01:00:21;16.80;;;15.30;;
2636;SDS011;1328;52.486;9.860;2022-07-15T01:02:47;16.60;;;14.90;;
2636;SDS011;1328;52.486;9.860;2022-07-15T01:05:17;20.23;;;15.47;;
2636;SDS011;1328;52.486;9.860;2022-07-15T01:07:44;16.37;;;14.73;;
2636;SDS011;1328;52.486;9.860;2022-07-15T01:10:10;16.70;;;15.10;;
2636;SDS011;1328;52.486;9.860;2022-07-15T01:12:36;16.33;;;14.70;;
2636;SDS011;1328;52.486;9.860;2022-07-15T01:15:03;15.90;;;14.50;;
2636;SDS011;1328;52.486;9.860;2022-07-15T01:17:30;15.20;;;13.70;;
2636;SDS011;1328;52.486;9.860;2022-07-15T01:19:57;15.13;;;13.83;;
2636;SDS011;1328;52.486;9.860;2022-07-15T01:22:23;15.90;;;14.37;;
2636;SDS011;1328;52.486;9.860;2022-07-15T01:24:49;16.23;;;14.70;;
2636;SDS011;1328;52.486;9.860;2022-07-15T01:27:15;15.30;;;14.00;;
2636;SDS011;1328;52.486;9.860;2022-07-15T01:29:41;16.00;;;14.40;;
2636;SDS011;1328;52.486;9.860;2022-07-15T01:32:07;16.17;;;14.53;;
2636;SDS011;1328;52.486;9.860;2022-07-15T01:34:34;15.17;;;13.83;;
2636;SDS011;1328;52.486;9.860;2022-07-15T01:37:00;15.90;;;14.43;;
2636;SDS011;1328;52.486;9.860;2022-07-15T01:39:26;14.90;;;13.30;;
2636;SDS011;1328;52.486;9.860;2022-07-15T01:41:52;14.77;;;13.37;;
2636;SDS011;1328;52.486;9.860;2022-07-15T01:44:18;17.27;;;15.53;;
2636;SDS011;1328;52.486;9.860;2022-07-15T01:46:44;15.60;;;14.10;;
2636;SDS011;1328;52.486;9.860;2022-07-15T01:49:11;15.53;;;14.03;;
2636;SDS011;1328;52.486;9.860;2022-07-15T01:51:55;16.03;;;14.50;;
2636;SDS011;1328;52.486;9.860;2022-07-15T01:54:21;15.70;;;14.13;;
2636;SDS011;1328;52.486;9.860;2022-07-15T01:56:48;15.40;;;13.93;;
2636;SDS011;1328;52.486;9.860;2022-07-15T01:59:14;15.07;;;13.57;;
2636;SDS011;1328;52.486;9.860;2022-07-15T02:01:41;19.13;;;14.00;;
2636;SDS011;1328;52.486;9.860;2022-07-15T02:04:07;15.77;;;14.30;;
2636;SDS011;1328;52.486;9.860;2022-07-15T02:06:34;14.80;;;13.60;;
2636;SDS011;1328;52.486;9.860;2022-07-15T02:09:00;15.57;;;13.60;;
2636;SDS011;1328;52.486;9.860;2022-07-15T02:11:26;15.27;;;13.83;;
2636;SDS011;1328;52.486;9.860;2022-07-15T02:13:52;21.53;;;14.50;;
2636;SDS011;1328;52.486;9.860;2022-07-15T02:16:24;15.13;;;13.70;;
2636;SDS011;1328;52.486;9.860;2022-07-15T02:18:51;14.77;;;13.37;;
2636;SDS011;1328;52.486;9.860;2022-07-15T02:21:17;15.33;;;13.83;;
2636;SDS011;1328;52.486;9.860;2022-07-15T02:23:43;16.33;;;14.83;;
2636;SDS011;1328;52.486;9.860;2022-07-15T02:26:09;15.43;;;14.03;;
2636;SDS011;1328;52.486;9.860;2022-07-15T02:28:35;16.00;;;14.33;;
2636;SDS011;1328;52.486;9.860;2022-07-15T02:31:01;16.43;;;14.77;;
2636;SDS011;1328;52.486;9.860;2022-07-15T02:33:27;15.17;;;13.73;;
2636;SDS011;1328;52.486;9.860;2022-07-15T02:35:54;15.57;;;14.03;;
2636;SDS011;1328;52.486;9.860;2022-07-15T02:38:20;15.63;;;14.13;;
2636;SDS011;1328;52.486;9.860;2022-07-15T02:40:47;15.33;;;13.67;;
2636;SDS011;1328;52.486;9.860;2022-07-15T02:43:13;14.63;;;13.33;;
2636;SDS011;1328;52.486;9.860;2022-07-15T02:45:39;14.03;;;12.83;;
2636;SDS011;1328;52.486;9.860;2022-07-15T02:48:06;13.90;;;12.60;;
2636;SDS011;1328;52.486;9.860;2022-07-15T02:50:32;14.60;;;13.10;;
2636;SDS011;1328;52.486;9.860;2022-07-15T02:52:59;15.73;;;14.07;;
2636;SDS011;1328;52.486;9.860;2022-07-15T02:55:25;14.60;;;13.10;;
2636;SDS011;1328;52.486;9.860;2022-07-15T02:57:52;15.00;;;13.53;;
2636;SDS011;1328;52.486;9.860;2022-07-15T03:00:18;14.63;;;13.33;;
2636;SDS011;1328;52.486;9.860;2022-07-15T03:02:45;16.07;;;13.60;;
2636;SDS011;1328;52.486;9.860;2022-07-15T03:05:11;14.73;;;13.23;;
2636;SDS011;1328;52.486;9.860;2022-07-15T03:07:38;15.80;;;13.00;;
2636;SDS011;1328;52.486;9.860;2022-07-15T03:10:05;18.03;;;13.20;;
2636;SDS011;1328;52.486;9.860;2022-07-15T03:12:31;14.97;;;13.47;;
2636;SDS011;1328;52.486;9.860;2022-07-15T03:14:57;14.87;;;13.43;;
2636;SDS011;1328;52.486;9.860;2022-07-15T03:17:24;17.13;;;15.43;;
2636;SDS011;1328;52.486;9.860;2022-07-15T03:19:50;15.97;;;14.57;;
2636;SDS011;1328;52.486;9.860;2022-07-15T03:22:16;16.47;;;14.97;;
2636;SDS011;1328;52.486;9.860;2022-07-15T03:24:42;16.30;;;15.00;;
2636;SDS011;1328;52.486;9.860;2022-07-15T03:27:08;15.60;;;14.20;;
2636;SDS011;1328;52.486;9.860;2022-07-15T03:29:34;16.07;;;14.40;;
2636;SDS011;1328;52.486;9.860;2022-07-15T03:32:00;14.87;;;13.77;;
2636;SDS011;1328;52.486;9.860;2022-07-15T03:34:27;15.33;;;13.70;;
2636;SDS011;1328;52.486;9.860;2022-07-15T03:36:53;14.13;;;12.90;;
2636;SDS011;1328;52.486;9.860;2022-07-15T03:39:20;15.17;;;13.80;;
2636;SDS011;1328;52.486;9.860;2022-07-15T03:41:46;14.23;;;13.13;;
2636;SDS011;1328;52.486;9.860;2022-07-15T03:44:12;14.63;;;13.10;;
2636;SDS011;1328;52.486;9.860;2022-07-15T03:46:38;16.73;;;12.93;;
2636;SDS011;1328;52.486;9.860;2022-07-15T03:49:04;15.43;;;13.03;;
2636;SDS011;1328;52.486;9.860;2022-07-15T03:51:31;16.60;;;12.60;;
2636;SDS011;1328;52.486;9.860;2022-07-15T03:53:58;13.53;;;12.43;;
2636;SDS011;1328;52.486;9.860;2022-07-15T03:56:24;13.90;;;12.70;;
2636;SDS011;1328;52.486;9.860;2022-07-15T03:58:50;15.17;;;13.77;;
2636;SDS011;1328;52.486;9.860;2022-07-15T04:01:16;14.60;;;13.40;;
2636;SDS011;1328;52.486;9.860;2022-07-15T04:03:42;14.23;;;12.80;;
2636;SDS011;1328;52.486;9.860;2022-07-15T04:06:08;18.40;;;12.97;;
2636;SDS011;1328;52.486;9.860;2022-07-15T04:08:34;14.33;;;13.03;;
2636;SDS011;1328;52.486;9.860;2022-07-15T04:11:00;15.00;;;13.50;;
2636;SDS011;1328;52.486;9.860;2022-07-15T04:13:26;15.10;;;13.60;;
2636;SDS011;1328;52.486;9.860;2022-07-15T04:15:53;14.47;;;13.20;;
2636;SDS011;1328;52.486;9.860;2022-07-15T04:18:19;14.00;;;12.80;;
2636;SDS011;1328;52.486;9.860;2022-07-15T04:20:45;13.80;;;12.70;;
2636;SDS011;1328;52.486;9.860;2022-07-15T04:23:11;14.60;;;13.20;;
2636;SDS011;1328;52.486;9.860;2022-07-15T04:25:37;14.80;;;13.50;;
2636;SDS011;1328;52.486;9.860;2022-07-15T04:28:04;14.93;;;13.43;;
2636;SDS011;1328;52.486;9.860;2022-07-15T04:30:30;14.40;;;12.80;;
2636;SDS011;1328;52.486;9.860;2022-07-15T04:32:56;14.23;;;12.90;;
2636;SDS011;1328;52.486;9.860;2022-07-15T04:35:22;15.53;;;13.97;;
2636;SDS011;1328;52.486;9.860;2022-07-15T04:37:48;15.30;;;13.80;;
2636;SDS011;1328;52.486;9.860;2022-07-15T04:40:14;17.93;;;15.00;;
2636;SDS011;1328;52.486;9.860;2022-07-15T04:42:40;20.47;;;18.27;;
2636;SDS011;1328;52.486;9.860;2022-07-15T04:45:07;18.80;;;17.30;;
2636;SDS011;1328;52.486;9.860;2022-07-15T04:47:33;16.60;;;14.97;;
2636;SDS011;1328;52.486;9.860;2022-07-15T04:49:59;16.57;;;15.07;;
2636;SDS011;1328;52.486;9.860;2022-07-15T04:52:44;17.80;;;16.00;;
2636;SDS011;1328;52.486;9.860;2022-07-15T04:55:10;20.90;;;15.70;;
2636;SDS011;1328;52.486;9.860;2022-07-15T04:57:36;17.73;;;15.70;;
2636;SDS011;1328;52.486;9.860;2022-07-15T05:00:03;18.33;;;16.40;;
2636;SDS011;1328;52.486;9.860;2022-07-15T05:02:29;18.93;;;17.27;;
2636;SDS011;1328;52.486;9.860;2022-07-15T05:04:55;20.17;;;16.63;;
2636;SDS011;1328;52.486;9.860;2022-07-15T05:07:21;20.17;;;18.13;;
2636;SDS011;1328;52.486;9.860;2022-07-15T05:09:47;18.70;;;17.00;;
2636;SDS011;1328;52.486;9.860;2022-07-15T05:12:13;20.00;;;18.30;;
2636;SDS011;1328;52.486;9.860;2022-07-15T05:14:39;20.30;;;16.93;;
2636;SDS011;1328;52.486;9.860;2022-07-15T05:17:06;20.00;;;17.10;;
2636;SDS011;1328;52.486;9.860;2022-07-15T05:19:32;25.23;;;22.07;;
2636;SDS011;1328;52.486;9.860;2022-07-15T05:21:58;23.00;;;21.00;;
2636;SDS011;1328;52.486;9.860;2022-07-15T05:24:25;24.63;;;22.30;;
2636;SDS011;1328;52.486;9.860;2022-07-15T05:26:51;20.20;;;18.20;;
2636;SDS011;1328;52.486;9.860;2022-07-15T05:29:17;42.93;;;39.93;;
2636;SDS011;1328;52.486;9.860;2022-07-15T05:31:46;23.23;;;21.00;;
2636;SDS011;1328;52.486;9.860;2022-07-15T05:34:13;46.77;;;43.50;;
2636;SDS011;1328;52.486;9.860;2022-07-15T05:36:39;30.47;;;28.00;;
2636;SDS011;1328;52.486;9.860;2022-07-15T05:39:05;26.40;;;24.03;;
2636;SDS011;1328;52.486;9.860;2022-07-15T05:41:31;42.57;;;39.50;;
2636;SDS011;1328;52.486;9.860;2022-07-15T05:43:58;31.47;;;28.80;;
2636;SDS011;1328;52.486;9.860;2022-07-15T05:46:24;35.57;;;32.67;;
2636;SDS011;1328;52.486;9.860;2022-07-15T05:48:50;68.63;;;63.80;;
2636;SDS011;1328;52.486;9.860;2022-07-15T05:51:16;122.83;;;115.53;;
2636;SDS011;1328;52.486;9.860;2022-07-15T05:53:42;55.63;;;51.70;;
2636;SDS011;1328;52.486;9.860;2022-07-15T05:56:09;87.43;;;82.43;;
2636;SDS011;1328;52.486;9.860;2022-07-15T05:58:35;112.13;;;105.73;;
2636;SDS011;1328;52.486;9.860;2022-07-15T06:01:01;173.67;;;165.23;;
2636;SDS011;1328;52.486;9.860;2022-07-15T06:03:27;202.77;;;193.27;;
2636;SDS011;1328;52.486;9.860;2022-07-15T06:05:53;231.83;;;219.20;;
2636;SDS011;1328;52.486;9.860;2022-07-15T06:08:19;279.90;;;263.63;;
2636;SDS011;1328;52.486;9.860;2022-07-15T06:10:45;215.53;;;204.80;;
2636;SDS011;1328;52.486;9.860;2022-07-15T06:13:11;597.80;;;565.57;;
2636;SDS011;1328;52.486;9.860;2022-07-15T06:15:38;510.73;;;483.57;;
2636;SDS011;1328;52.486;9.860;2022-07-15T06:18:04;712.80;;;672.20;;
2636;SDS011;1328;52.486;9.860;2022-07-15T06:20:30;645.73;;;613.17;;
2636;SDS011;1328;52.486;9.860;2022-07-15T06:22:56;747.57;;;709.10;;
2636;SDS011;1328;52.486;9.860;2022-07-15T06:25:22;856.97;;;807.07;;
2636;SDS011;1328;52.486;9.860;2022-07-15T06:27:48;906.93;;;854.50;;
2636;SDS011;1328;52.486;9.860;2022-07-15T06:30:15;1023.70;;;948.37;;
2636;SDS011;1328;52.486;9.860;2022-07-15T06:32:41;1016.20;;;948.00;;
2636;SDS011;1328;52.486;9.860;2022-07-15T06:35:07;1058.73;;;981.03;;
2636;SDS011;1328;52.486;9.860;2022-07-15T06:37:33;1054.83;;;985.33;;
2636;SDS011;1328;52.486;9.860;2022-07-15T06:39:59;1065.67;;;994.97;;
2636;SDS011;1328;52.486;9.860;2022-07-15T06:42:25;1079.90;;;999.90;;
2636;SDS011;1328;52.486;9.860;2022-07-15T06:44:52;1048.47;;;970.27;;
2636;SDS011;1328;52.486;9.860;2022-07-15T06:47:18;836.93;;;783.17;;
2636;SDS011;1328;52.486;9.860;2022-07-15T06:49:44;805.23;;;759.53;;
2636;SDS011;1328;52.486;9.860;2022-07-15T06:52:10;777.33;;;734.17;;
2636;SDS011;1328;52.486;9.860;2022-07-15T06:54:37;734.63;;;692.93;;
2636;SDS011;1328;52.486;9.860;2022-07-15T06:57:03;180.77;;;164.87;;
2636;SDS011;1328;52.486;9.860;2022-07-15T06:59:29;727.77;;;683.77;;
2636;SDS011;1328;52.486;9.860;2022-07-15T07:01:55;367.57;;;343.03;;
2636;SDS011;1328;52.486;9.860;2022-07-15T07:04:21;847.80;;;796.50;;
2636;SDS011;1328;52.486;9.860;2022-07-15T07:06:47;735.67;;;680.13;;
2636;SDS011;1328;52.486;9.860;2022-07-15T07:09:13;877.93;;;826.97;;
2636;SDS011;1328;52.486;9.860;2022-07-15T07:11:39;892.10;;;838.03;;
2636;SDS011;1328;52.486;9.860;2022-07-15T07:14:06;701.43;;;657.20;;
2636;SDS011;1328;52.486;9.860;2022-07-15T07:16:32;874.97;;;820.27;;
2636;SDS011;1328;52.486;9.860;2022-07-15T07:18:59;852.90;;;798.73;;
2636;SDS011;1328;52.486;9.860;2022-07-15T07:21:25;876.43;;;825.50;;
2636;SDS011;1328;52.486;9.860;2022-07-15T07:23:51;852.37;;;804.27;;
2636;SDS011;1328;52.486;9.860;2022-07-15T07:26:18;968.30;;;908.07;;
2636;SDS011;1328;52.486;9.860;2022-07-15T07:28:44;889.07;;;836.53;;
2636;SDS011;1328;52.486;9.860;2022-07-15T07:31:12;893.20;;;840.90;;
2636;SDS011;1328;52.486;9.860;2022-07-15T07:33:38;912.83;;;858.90;;
2636;SDS011;1328;52.486;9.860;2022-07-15T07:36:05;915.03;;;861.03;;
2636;SDS011;1328;52.486;9.860;2022-07-15T07:38:32;873.63;;;818.37;;
2636;SDS011;1328;52.486;9.860;2022-07-15T07:40:59;871.03;;;820.53;;
2636;SDS011;1328;52.486;9.860;2022-07-15T07:43:25;848.83;;;799.43;;
2636;SDS011;1328;52.486;9.860;2022-07-15T07:45:51;865.03;;;814.53;;
2636;SDS011;1328;52.486;9.860;2022-07-15T07:48:17;849.90;;;800.90;;
2636;SDS011;1328;52.486;9.860;2022-07-15T07:50:44;664.47;;;624.67;;
2636;SDS011;1328;52.486;9.860;2022-07-15T07:53:10;634.43;;;596.73;;
2636;SDS011;1328;52.486;9.860;2022-07-15T07:55:36;614.30;;;576.50;;
2636;SDS011;1328;52.486;9.860;2022-07-15T07:58:03;835.83;;;787.07;;
2636;SDS011;1328;52.486;9.860;2022-07-15T08:00:29;403.30;;;375.77;;
2636;SDS011;1328;52.486;9.860;2022-07-15T08:02:57;674.57;;;632.90;;
2636;SDS011;1328;52.486;9.860;2022-07-15T08:05:23;96.57;;;77.63;;
2636;SDS011;1328;52.486;9.860;2022-07-15T08:07:49;332.10;;;305.83;;
2636;SDS011;1328;52.486;9.860;2022-07-15T08:10:16;188.63;;;174.07;;
2636;SDS011;1328;52.486;9.860;2022-07-15T08:12:43;184.43;;;169.00;;
2636;SDS011;1328;52.486;9.860;2022-07-15T08:15:10;138.53;;;126.33;;
2636;SDS011;1328;52.486;9.860;2022-07-15T08:17:39;457.43;;;417.97;;
2636;SDS011;1328;52.486;9.860;2022-07-15T08:20:05;248.77;;;229.47;;
2636;SDS011;1328;52.486;9.860;2022-07-15T08:22:33;232.90;;;217.50;;
2636;SDS011;1328;52.486;9.860;2022-07-15T08:24:59;228.33;;;213.13;;
2636;SDS011;1328;52.486;9.860;2022-07-15T08:27:25;501.83;;;473.10;;
2636;SDS011;1328;52.486;9.860;2022-07-15T08:29:51;89.83;;;71.47;;
2636;SDS011;1328;52.486;9.860;2022-07-15T08:32:18;106.70;;;95.37;;
2636;SDS011;1328;52.486;9.860;2022-07-15T08:34:44;258.37;;;242.33;;
2636;SDS011;1328;52.486;9.860;2022-07-15T08:37:12;116.07;;;103.50;;
2636;SDS011;1328;52.486;9.860;2022-07-15T08:39:38;144.40;;;131.17;;
2636;SDS011;1328;52.486;9.860;2022-07-15T08:42:05;89.37;;;71.07;;
2636;SDS011;1328;52.486;9.860;2022-07-15T08:44:31;85.83;;;64.93;;
2636;SDS011;1328;52.486;9.860;2022-07-15T08:47:00;87.13;;;67.37;;
2636;SDS011;1328;52.486;9.860;2022-07-15T08:49:26;88.20;;;69.57;;
2636;SDS011;1328;52.486;9.860;2022-07-15T08:51:54;105.80;;;94.73;;
2636;SDS011;1328;52.486;9.860;2022-07-15T08:54:21;363.37;;;340.77;;
2636;SDS011;1328;52.486;9.860;2022-07-15T08:56:48;114.60;;;102.97;;
2636;SDS011;1328;52.486;9.860;2022-07-15T08:59:14;258.30;;;242.13;;
2636;SDS011;1328;52.486;9.860;2022-07-15T09:01:42;283.27;;;266.70;;
2636;SDS011;1328;52.486;9.860;2022-07-15T09:04:09;317.47;;;298.90;;
2636;SDS011;1328;52.486;9.860;2022-07-15T09:06:38;439.27;;;415.73;;
2636;SDS011;1328;52.486;9.860;2022-07-15T09:12:08;79.63;;;49.60;;
2636;SDS011;1328;52.486;9.860;2022-07-15T09:14:35;83.50;;;65.20;;
2636;SDS011;1328;52.486;9.860;2022-07-15T09:22:22;217.63;;;201.60;;
2636;SDS011;1328;52.486;9.860;2022-07-15T09:25:10;361.47;;;339.70;;
2636;SDS011;1328;52.486;9.860;2022-07-15T09:27:40;285.43;;;267.00;;
2636;SDS011;1328;52.486;9.860;2022-07-15T09:30:23;370.77;;;348.90;;
2636;SDS011;1328;52.486;9.860;2022-07-15T09:33:13;424.40;;;399.60;;
2636;SDS011;1328;52.486;9.860;2022-07-15T09:41:11;104.23;;;93.23;;
2636;SDS011;1328;52.486;9.860;2022-07-15T09:43:45;157.80;;;144.07;;
2636;SDS011;1328;52.486;9.860;2022-07-15T09:46:11;228.67;;;210.90;;
2636;SDS011;1328;52.486;9.860;2022-07-15T09:48:41;172.93;;;159.83;;
2636;SDS011;1328;52.486;9.860;2022-07-15T09:51:07;179.30;;;165.80;;
2636;SDS011;1328;52.486;9.860;2022-07-15T09:53:34;193.63;;;178.97;;
2636;SDS011;1328;52.486;9.860;2022-07-15T09:56:00;161.70;;;148.93;;
2636;SDS011;1328;52.486;9.860;2022-07-15T09:58:27;315.70;;;297.13;;
2636;SDS011;1328;52.486;9.860;2022-07-15T10:00:53;158.80;;;145.90;;
2636;SDS011;1328;52.486;9.860;2022-07-15T10:03:20;147.83;;;135.20;;
2636;SDS011;1328;52.486;9.860;2022-07-15T10:05:51;84.33;;;58.20;;
2636;SDS011;1328;52.486;9.860;2022-07-15T10:08:19;131.17;;;119.90;;
2636;SDS011;1328;52.486;9.860;2022-07-15T10:10:45;152.50;;;140.03;;
2636;SDS011;1328;52.486;9.860;2022-07-15T10:13:25;333.80;;;314.37;;
2636;SDS011;1328;52.486;9.860;2022-07-15T10:21:38;140.93;;;129.40;;
2636;SDS011;1328;52.486;9.860;2022-07-15T10:29:17;218.27;;;202.70;;
2636;SDS011;1328;52.486;9.860;2022-07-15T10:31:43;154.97;;;142.60;;
2636;SDS011;1328;52.486;9.860;2022-07-15T10:39:17;120.77;;;109.43;;
2636;SDS011;1328;52.486;9.860;2022-07-15T10:44:22;369.80;;;347.80;;
2636;SDS011;1328;52.486;9.860;2022-07-15T10:47:15;141.93;;;129.67;;
2636;SDS011;1328;52.486;9.860;2022-07-15T10:49:34;570.87;;;541.07;;
2636;SDS011;1328;52.486;9.860;2022-07-15T10:52:19;471.13;;;446.10;;
2636;SDS011;1328;52.486;9.860;2022-07-15T10:54:47;335.93;;;316.03;;
2636;SDS011;1328;52.486;9.860;2022-07-15T10:57:14;311.43;;;287.60;;
2636;SDS011;1328;52.486;9.860;2022-07-15T10:59:49;337.70;;;317.87;;
2636;SDS011;1328;52.486;9.860;2022-07-15T11:02:16;103.13;;;92.93;;
2636;SDS011;1328;52.486;9.860;2022-07-15T11:04:42;302.63;;;284.13;;
2636;SDS011;1328;52.486;9.860;2022-07-15T11:14:47;173.10;;;159.70;;
2636;SDS011;1328;52.486;9.860;2022-07-15T11:17:14;278.07;;;258.20;;
2636;SDS011;1328;52.486;9.860;2022-07-15T11:19:45;146.27;;;134.17;;
2636;SDS011;1328;52.486;9.860;2022-07-15T11:22:12;118.10;;;107.60;;
2636;SDS011;1328;52.486;9.860;2022-07-15T11:24:38;159.33;;;146.57;;
2636;SDS011;1328;52.486;9.860;2022-07-15T11:27:04;236.10;;;219.37;;
2636;SDS011;1328;52.486;9.860;2022-07-15T11:29:40;194.80;;;179.97;;
2636;SDS011;1328;52.486;9.860;2022-07-15T11:32:06;205.23;;;190.50;;
2636;SDS011;1328;52.486;9.860;2022-07-15T11:34:38;300.47;;;281.70;;
2636;SDS011;1328;52.486;9.860;2022-07-15T11:37:04;146.17;;;133.90;;
2636;SDS011;1328;52.486;9.860;2022-07-15T11:39:31;118.03;;;107.43;;
2636;SDS011;1328;52.486;9.860;2022-07-15T11:41:57;104.60;;;94.30;;
2636;SDS011;1328;52.486;9.860;2022-07-15T11:44:49;389.07;;;367.57;;
2636;SDS011;1328;52.486;9.860;2022-07-15T11:47:15;491.20;;;465.00;;
2636;SDS011;1328;52.486;9.860;2022-07-15T11:49:42;453.83;;;428.37;;
2636;SDS011;1328;52.486;9.860;2022-07-15T11:52:09;198.97;;;184.37;;
2636;SDS011;1328;52.486;9.860;2022-07-15T11:54:37;143.60;;;131.73;;
2636;SDS011;1328;52.486;9.860;2022-07-15T11:57:04;84.40;;;66.77;;
2636;SDS011;1328;52.486;9.860;2022-07-15T11:59:31;229.47;;;213.43;;
2636;SDS011;1328;52.486;9.860;2022-07-15T12:04:26;577.50;;;547.33;;
2636;SDS011;1328;52.486;9.860;2022-07-15T12:06:52;309.77;;;290.90;;
2636;SDS011;1328;52.486;9.860;2022-07-15T12:09:19;104.30;;;93.90;;
2636;SDS011;1328;52.486;9.860;2022-07-15T12:11:45;413.17;;;389.73;;
2636;SDS011;1328;52.486;9.860;2022-07-15T12:14:12;240.07;;;223.73;;
2636;SDS011;1328;52.486;9.860;2022-07-15T12:19:09;218.90;;;203.53;;
2636;SDS011;1328;52.486;9.860;2022-07-15T12:21:35;556.87;;;526.27;;
2636;SDS011;1328;52.486;9.860;2022-07-15T12:26:28;308.20;;;288.87;;
2636;SDS011;1328;52.486;9.860;2022-07-15T12:28:54;176.30;;;162.30;;
2636;SDS011;1328;52.486;9.860;2022-07-15T12:31:24;219.90;;;204.40;;
2636;SDS011;1328;52.486;9.860;2022-07-15T12:33:51;413.30;;;389.30;;
2636;SDS011;1328;52.486;9.860;2022-07-15T12:36:18;335.33;;;315.70;;
2636;SDS011;1328;52.486;9.860;2022-07-15T12:38:44;139.77;;;127.60;;
2636;SDS011;1328;52.486;9.860;2022-07-15T12:41:23;95.23;;;85.30;;
2636;SDS011;1328;52.486;9.860;2022-07-15T12:43:53;115.40;;;104.17;;
2636;SDS011;1328;52.486;9.860;2022-07-15T12:46:20;200.27;;;185.43;;
2636;SDS011;1328;52.486;9.860;2022-07-15T12:49:06;346.40;;;325.87;;
2636;SDS011;1328;52.486;9.860;2022-07-15T12:51:32;160.33;;;147.20;;
2636;SDS011;1328;52.486;9.860;2022-07-15T12:54:03;99.10;;;85.40;;
2636;SDS011;1328;52.486;9.860;2022-07-15T12:56:29;397.33;;;370.37;;
2636;SDS011;1328;52.486;9.860;2022-07-15T12:58:55;217.50;;;201.40;;
2636;SDS011;1328;52.486;9.860;2022-07-15T13:01:21;426.40;;;401.03;;
2636;SDS011;1328;52.486;9.860;2022-07-15T13:03:47;667.23;;;630.77;;
2636;SDS011;1328;52.486;9.860;2022-07-15T13:06:13;696.53;;;659.40;;
2636;SDS011;1328;52.486;9.860;2022-07-15T13:08:40;594.27;;;562.53;;
2636;SDS011;1328;52.486;9.860;2022-07-15T13:11:07;182.03;;;168.33;;
2636;SDS011;1328;52.486;9.860;2022-07-15T13:13:34;91.57;;;81.80;;
2636;SDS011;1328;52.486;9.860;2022-07-15T13:16:01;250.23;;;234.50;;
2636;SDS011;1328;52.486;9.860;2022-07-15T13:18:28;350.77;;;331.70;;
2636;SDS011;1328;52.486;9.860;2022-07-15T13:20:54;296.60;;;278.93;;
2636;SDS011;1328;52.486;9.860;2022-07-15T13:23:21;230.63;;;215.67;;
2636;SDS011;1328;52.486;9.860;2022-07-15T13:25:47;195.20;;;181.60;;
2636;SDS011;1328;52.486;9.860;2022-07-15T13:28:15;136.00;;;124.07;;
2636;SDS011;1328;52.486;9.860;2022-07-15T13:30:41;136.07;;;124.33;;
2636;SDS011;1328;52.486;9.860;2022-07-15T13:33:07;87.90;;;76.70;;
2636;SDS011;1328;52.486;9.860;2022-07-15T13:35:33;104.10;;;93.50;;
2636;SDS011;1328;52.486;9.860;2022-07-15T13:38:00;99.33;;;88.93;;
2636;SDS011;1328;52.486;9.860;2022-07-15T13:40:26;112.70;;;101.73;;
2636;SDS011;1328;52.486;9.860;2022-07-15T13:42:52;143.07;;;131.17;;
2636;SDS011;1328;52.486;9.860;2022-07-15T13:45:18;389.73;;;368.90;;
2636;SDS011;1328;52.486;9.860;2022-07-15T13:47:44;279.07;;;261.90;;
2636;SDS011;1328;52.486;9.860;2022-07-15T13:50:10;307.87;;;290.27;;
2636;SDS011;1328;52.486;9.860;2022-07-15T13:52:55;346.23;;;327.43;;
2636;SDS011;1328;52.486;9.860;2022-07-15T13:55:22;291.20;;;274.57;;
2636;SDS011;1328;52.486;9.860;2022-07-15T13:57:49;329.40;;;311.47;;
2636;SDS011;1328;52.486;9.860;2022-07-15T14:00:16;247.40;;;231.63;;
2636;SDS011;1328;52.486;9.860;2022-07-15T14:02:43;181.27;;;167.80;;
2636;SDS011;1328;52.486;9.860;2022-07-15T14:05:10;178.73;;;165.63;;
2636;SDS011;1328;52.486;9.860;2022-07-15T14:07:37;104.73;;;94.80;;
2636;SDS011;1328;52.486;9.860;2022-07-15T14:10:04;83.73;;;74.20;;
2636;SDS011;1328;52.486;9.860;2022-07-15T14:12:30;97.37;;;87.77;;
2636;SDS011;1328;52.486;9.860;2022-07-15T14:14:56;83.63;;;71.37;;
2636;SDS011;1328;52.486;9.860;2022-07-15T14:17:22;201.50;;;187.10;;
2636;SDS011;1328;52.486;9.860;2022-07-15T14:19:49;138.03;;;126.13;;
2636;SDS011;1328;52.486;9.860;2022-07-15T14:22:15;312.70;;;295.43;;
2636;SDS011;1328;52.486;9.860;2022-07-15T14:24:41;257.67;;;241.00;;
2636;SDS011;1328;52.486;9.860;2022-07-15T14:27:07;221.87;;;205.80;;
2636;SDS011;1328;52.486;9.860;2022-07-15T14:29:34;223.93;;;206.77;;
2636;SDS011;1328;52.486;9.860;2022-07-15T14:32:00;264.73;;;248.63;;
2636;SDS011;1328;52.486;9.860;2022-07-15T14:34:26;197.40;;;183.33;;
2636;SDS011;1328;52.486;9.860;2022-07-15T14:36:52;208.80;;;194.03;;
2636;SDS011;1328;52.486;9.860;2022-07-15T14:39:18;309.53;;;290.87;;
2636;SDS011;1328;52.486;9.860;2022-07-15T14:41:44;223.23;;;208.10;;
2636;SDS011;1328;52.486;9.860;2022-07-15T14:44:10;91.07;;;81.40;;
2636;SDS011;1328;52.486;9.860;2022-07-15T14:46:36;257.07;;;238.93;;
2636;SDS011;1328;52.486;9.860;2022-07-15T14:49:02;243.53;;;226.33;;
2636;SDS011;1328;52.486;9.860;2022-07-15T14:51:28;367.07;;;340.30;;
2636;SDS011;1328;52.486;9.860;2022-07-15T14:53:54;149.67;;;137.20;;
2636;SDS011;1328;52.486;9.860;2022-07-15T14:56:20;177.90;;;164.67;;
2636;SDS011;1328;52.486;9.860;2022-07-15T14:58:46;252.37;;;233.70;;
2636;SDS011;1328;52.486;9.860;2022-07-15T15:01:12;96.70;;;87.03;;
2636;SDS011;1328;52.486;9.860;2022-07-15T15:03:39;158.27;;;145.30;;
2636;SDS011;1328;52.486;9.860;2022-07-15T15:06:05;279.77;;;259.97;;
2636;SDS011;1328;52.486;9.860;2022-07-15T15:08:31;265.97;;;248.30;;
2636;SDS011;1328;52.486;9.860;2022-07-15T15:10:57;215.43;;;200.37;;
2636;SDS011;1328;52.486;9.860;2022-07-15T15:13:23;190.53;;;174.97;;
2636;SDS011;1328;52.486;9.860;2022-07-15T15:15:49;203.17;;;188.47;;
2636;SDS011;1328;52.486;9.860;2022-07-15T15:18:15;135.80;;;123.47;;
2636;SDS011;1328;52.486;9.860;2022-07-15T15:20:41;162.73;;;149.50;;